Weather reports worldwide

Advertisment
Bealach, United Kingdom (3039): temperature & dewpoint: 22.03.2020 21:00:00 - 28.03.2020 21:00:00 (GMT)Bealach, United Kingdom (3039): wind speed & gusts: 22.03.2020 21:00:00 - 28.03.2020 21:00:00 (GMT)Bealach, United Kingdom (3039): wind direction: 22.03.2020 21:00:00 - 28.03.2020 21:00:00 (GMT)
Date & Time tt [°C] td [°C] ff [km/h] ff [kn] fx [km/h] fx [kn] dd
28.03.2020 21:00:00 -3,3 -8,2 9 5 - - NE
28.03.2020 20:00:00 -2,8 -7,3 16 9 - - NE
28.03.2020 19:00:00 -2,2 -6,4 11 6 - - NNE
28.03.2020 18:00:00 -1,9 -5,8 13 7 - - E
28.03.2020 17:00:00 -1,4 -5,6 15 8 - - NNE
28.03.2020 16:00:00 -1,2 -7,0 13 7 - - N
28.03.2020 15:00:00 -0,7 -8,9 16 9 50 27 ENE
28.03.2020 14:00:00 -1,5 -8,5 16 9 54 29 NE
28.03.2020 13:00:00 -1,2 -5,1 13 7 - - ENE
28.03.2020 12:00:00 -0,8 -6,9 18 10 - - E
28.03.2020 11:00:00 -1,1 -7,3 26 14 68 37 NNE
28.03.2020 10:00:00 -1,4 -6,4 21 11 61 33 N
28.03.2020 09:00:00 -1,2 -6,0 34 18 68 37 NNE
28.03.2020 08:00:00 -1,3 -4,1 34 18 63 34 N
28.03.2020 07:00:00 -0,9 -3,2 26 14 61 33 NNE
28.03.2020 06:00:00 -0,9 -1,6 37 20 57 31 NNE
28.03.2020 05:00:00 -0,3 -4,4 34 18 61 33 NNE
28.03.2020 04:00:00 -0,4 -2,2 29 16 57 31 N
28.03.2020 03:00:00 -0,1 -1,7 37 20 65 35 NNE
28.03.2020 02:00:00 0,1 -2,6 46 25 67 36 NNE
28.03.2020 01:00:00 -0,1 -1,4 42 23 57 31 NNE
28.03.2020 00:00:00 0,4 0,2 37 20 52 28 NNE
27.03.2020 23:00:00 1,0 0,3 34 18 46 25 NNE
27.03.2020 22:00:00 1,0 -0,1 35 19 48 26 NNE
27.03.2020 21:00:00 1,1 -1,2 29 16 - - NNE
27.03.2020 20:00:00 0,8 -1,2 16 9 - - NNE
27.03.2020 19:00:00 1,4 -1,1 22 12 - - NE
27.03.2020 18:00:00 2,0 -2,3 21 11 - - N
27.03.2020 17:00:00 2,6 -1,9 18 10 - - N
27.03.2020 16:00:00 3,0 -3,3 8 4 - - NNE
27.03.2020 15:00:00 2,9 -6,0 5 3 - - NNE
27.03.2020 14:00:00 2,5 -3,3 9 5 - - NNE
27.03.2020 13:00:00 2,7 -4,9 15 8 - - NE
27.03.2020 12:00:00 2,2 -5,1 13 7 - - NNE
27.03.2020 11:00:00 1,9 -4,6 16 9 - - NE
27.03.2020 10:00:00 1,5 -3,9 15 8 - - NE
27.03.2020 09:00:00 1,1 -4,3 16 9 - - ENE
27.03.2020 08:00:00 0,9 -5,7 13 7 - - NNE
27.03.2020 07:00:00 0,9 -5,5 5 3 - - NNE
27.03.2020 06:00:00 0,4 -3,1 8 4 - - ENE
27.03.2020 05:00:00 0,6 -3,2 9 5 - - NNE
27.03.2020 04:00:00 0,6 -3,0 26 14 - - N
27.03.2020 03:00:00 0,2 -3,0 22 12 - - N
27.03.2020 02:00:00 0,3 -2,2 9 5 - - N
27.03.2020 01:00:00 0,7 -2,3 9 5 - - NNW
27.03.2020 00:00:00 1,4 -1,7 2 1 - - NE
26.03.2020 23:00:00 1,4 -1,6 2 1 - - E
26.03.2020 22:00:00 1,2 -2,5 4 2 - - N
26.03.2020 21:00:00 1,3 -1,5 8 4 - - NNW
26.03.2020 20:00:00 1,3 -2,0 2 1 - - NE
26.03.2020 19:00:00 1,2 -3,6 8 4 - - NNW
26.03.2020 18:00:00 1,8 -4,8 11 6 - - NNW
26.03.2020 17:00:00 1,8 -4,0 16 9 - - NNW
26.03.2020 16:00:00 2,4 -2,9 18 10 - - NW
26.03.2020 15:00:00 2,3 -4,4 16 9 - - NNW
26.03.2020 14:00:00 2,2 -3,7 5 3 - - WNW
26.03.2020 13:00:00 1,8 -2,6 5 3 - - N
26.03.2020 12:00:00 1,5 0,6 8 4 - - N
26.03.2020 11:00:00 1,4 1,2 4 2 - - SE
26.03.2020 10:00:00 1,1 0,8 4 2 - - E
26.03.2020 09:00:00 0,4 0,0 5 3 - - N
26.03.2020 08:00:00 0,2 0,0 8 4 - - NNE
26.03.2020 07:00:00 0,2 0,2 5 3 - - NNE
26.03.2020 06:00:00 -0,1 -0,1 11 6 - - NNW
26.03.2020 05:00:00 -0,1 -0,1 13 7 - - N
26.03.2020 04:00:00 -0,2 -0,2 11 6 - - NNW
26.03.2020 03:00:00 -0,1 -0,1 11 6 - - NNW
26.03.2020 02:00:00 0,0 0,0 11 6 - - NNW
26.03.2020 01:00:00 0,0 0,0 9 5 - - NNW
26.03.2020 00:00:00 0,1 0,1 16 9 - - NNW
25.03.2020 23:00:00 0,1 0,1 13 7 - - NNW
25.03.2020 22:00:00 0,6 0,6 11 6 - - NW
25.03.2020 21:00:00 0,7 0,7 11 6 - - NW
25.03.2020 20:00:00 0,7 0,7 9 5 - - NNW
25.03.2020 19:00:00 1,1 1,1 13 7 - - NW
25.03.2020 18:00:00 1,5 1,5 11 6 - - WSW
25.03.2020 17:00:00 1,2 1,2 9 5 - - WNW
25.03.2020 16:00:00 1,7 1,7 9 5 - - W
25.03.2020 15:00:00 1,7 1,7 9 5 - - W
25.03.2020 14:00:00 1,9 1,9 5 3 - - SW
25.03.2020 13:00:00 1,7 1,7 8 4 - - W
25.03.2020 12:00:00 1,4 1,4 8 4 - - W
25.03.2020 11:00:00 1,2 1,2 9 5 - - NW
25.03.2020 10:00:00 0,8 0,8 9 5 - - N
25.03.2020 09:00:00 1,2 1,2 9 5 - - NW
25.03.2020 08:00:00 1,2 1,2 15 8 - - NW
25.03.2020 07:00:00 1,3 1,3 22 12 - - NW
25.03.2020 06:00:00 1,7 1,7 24 13 - - NW
25.03.2020 05:00:00 3,5 3,5 26 14 87 47 W
25.03.2020 04:00:00 4,5 4,5 70 38 96 52 SSW
25.03.2020 03:00:00 4,7 4,7 80 43 109 59 SSW
25.03.2020 02:00:00 4,7 4,7 85 46 106 57 SSW
25.03.2020 01:00:00 4,5 4,5 81 44 106 57 S
25.03.2020 00:00:00 4,6 4,6 83 45 107 58 S
24.03.2020 23:00:00 4,4 4,4 85 46 106 57 S
24.03.2020 22:00:00 4,4 4,4 81 44 109 59 S
24.03.2020 21:00:00 4,5 4,5 91 49 119 64 S
24.03.2020 20:00:00 4,5 4,5 94 51 120 65 S
24.03.2020 19:00:00 4,4 4,4 91 49 124 67 S
24.03.2020 18:00:00 4,5 4,5 100 54 130 70 S
24.03.2020 17:00:00 4,5 4,5 96 52 130 70 S
24.03.2020 16:00:00 4,6 4,6 98 53 130 70 S
24.03.2020 15:00:00 4,5 4,5 104 56 131 71 S
24.03.2020 14:00:00 4,2 4,2 106 57 137 74 S
24.03.2020 13:00:00 3,9 3,9 98 53 139 75 S
24.03.2020 12:00:00 3,4 3,4 98 53 141 76 S
24.03.2020 11:00:00 3,2 3,2 78 42 130 70 S
24.03.2020 10:00:00 3,0 3,0 96 52 128 69 S
24.03.2020 09:00:00 2,9 2,9 94 51 122 66 S
24.03.2020 08:00:00 2,9 2,9 76 41 111 60 S
24.03.2020 07:00:00 2,7 2,7 76 41 117 63 S
24.03.2020 06:00:00 2,5 2,5 65 35 102 55 S
24.03.2020 05:00:00 2,5 2,5 61 33 109 59 S
24.03.2020 04:00:00 2,5 2,5 67 36 98 53 S
24.03.2020 03:00:00 2,7 2,7 74 40 98 53 S
24.03.2020 02:00:00 3,0 3,0 76 41 106 57 S
24.03.2020 01:00:00 3,1 3,1 61 33 100 54 S
24.03.2020 00:00:00 3,0 3,0 78 42 102 55 S
23.03.2020 23:00:00 2,6 2,6 80 43 104 56 S
23.03.2020 22:00:00 2,5 2,5 85 46 117 63 S
23.03.2020 21:00:00 2,4 2,4 94 51 122 66 SSW
23.03.2020 20:00:00 2,3 2,3 93 50 119 64 S
23.03.2020 19:00:00 2,1 2,1 91 49 119 64 S
23.03.2020 18:00:00 2,2 2,2 93 50 122 66 S
23.03.2020 17:00:00 2,1 2,1 91 49 117 63 S
23.03.2020 16:00:00 1,9 1,9 76 41 119 64 S
23.03.2020 15:00:00 1,7 1,7 59 32 106 57 S
23.03.2020 14:00:00 1,6 1,6 65 35 106 57 S
23.03.2020 13:00:00 1,3 1,3 67 36 107 58 S
23.03.2020 12:00:00 1,3 0,8 67 36 117 63 S
23.03.2020 11:00:00 1,4 0,5 81 44 109 59 S
23.03.2020 10:00:00 0,8 0,5 74 40 119 64 S
23.03.2020 09:00:00 0,5 -0,6 80 43 119 64 S
23.03.2020 08:00:00 0,6 -1,4 68 37 111 60 S
23.03.2020 07:00:00 0,5 -1,4 70 38 126 68 S
23.03.2020 06:00:00 0,4 -1,7 67 36 107 58 S
23.03.2020 05:00:00 0,4 -1,5 46 25 91 49 S
23.03.2020 04:00:00 0,1 -1,5 50 27 89 48 S
23.03.2020 03:00:00 0,2 -1,6 50 27 91 49 S
23.03.2020 02:00:00 0,3 -1,7 52 28 94 51 S
23.03.2020 01:00:00 0,6 -1,4 44 24 98 53 S
23.03.2020 00:00:00 0,3 -1,2 44 24 83 45 S
22.03.2020 23:00:00 0,2 -1,8 39 21 72 39 S
22.03.2020 22:00:00 0,0 -3,4 29 16 85 46 S
22.03.2020 21:00:00 -0,1 -3,3 39 21 93 50 S

tt = temperature
td = dewpoint
ff = wind speed
fx = gusts
dd = wind direction

Next stations